createdAt,value
2019-04-06T00:00:13.275Z,99197.29
2019-04-06T00:02:42.516Z,99198.59
2019-04-06T00:05:12.525Z,99198.11
2019-04-06T00:07:41.718Z,99188.82
2019-04-06T00:10:11.423Z,99192.09
2019-04-06T00:12:40.651Z,99184.20
2019-04-06T00:15:09.928Z,99181.62
2019-04-06T00:17:39.213Z,99175.38
2019-04-06T00:20:08.729Z,99175.38
2019-04-06T00:22:38.162Z,99183.62
2019-04-06T00:25:08.417Z,99179.25
2019-04-06T00:27:37.540Z,99175.48
2019-04-06T00:30:08.575Z,99174.92
2019-04-06T00:32:42.168Z,99172.67
2019-04-06T00:35:11.427Z,99171.26
2019-04-06T00:37:40.607Z,99154.42
2019-04-06T00:40:10.463Z,99162.20
2019-04-06T00:42:39.718Z,99169.28
2019-04-06T00:45:09.486Z,99164.80
2019-04-06T00:47:38.714Z,99173.87
2019-04-06T00:50:08.009Z,99172.33
2019-04-06T00:52:37.093Z,99173.84
2019-04-06T00:55:07.107Z,99165.85
2019-04-06T00:57:36.310Z,99168.69
2019-04-06T01:00:10.170Z,99168.69
2019-04-06T01:02:39.603Z,99170.69
2019-04-06T01:05:09.152Z,99172.34
2019-04-06T01:07:38.343Z,99178.45
2019-04-06T01:10:08.170Z,99174.45
2019-04-06T01:12:37.373Z,99186.70
2019-04-06T01:15:07.133Z,99189.99
2019-04-06T01:17:36.377Z,99188.48
2019-04-06T01:20:06.287Z,99193.29
2019-04-06T01:22:35.499Z,99183.75
2019-04-06T01:25:07.250Z,99184.11
2019-04-06T01:27:37.327Z,99185.41
2019-04-06T01:30:08.365Z,99179.53
2019-04-06T01:32:37.530Z,99173.75
2019-04-06T01:35:07.084Z,99169.75
2019-04-06T01:37:36.243Z,99176.23
2019-04-06T01:40:07.050Z,99182.34
2019-04-06T01:42:36.167Z,99179.41
2019-04-06T01:45:06.665Z,99189.41
2019-04-06T01:47:35.907Z,99186.23
2019-04-06T01:50:05.706Z,99185.39
2019-04-06T01:52:34.835Z,99185.61
2019-04-06T01:55:04.767Z,99184.31
2019-04-06T01:57:33.827Z,99181.62
2019-04-06T02:00:03.148Z,99184.94
2019-04-06T02:02:36.418Z,99167.26
2019-04-06T02:05:07.002Z,99167.63
2019-04-06T02:07:36.234Z,99161.85
2019-04-06T02:10:07.256Z,99166.10
2019-04-06T02:12:36.400Z,99166.35
2019-04-06T02:15:06.815Z,99163.76
2019-04-06T02:17:36.118Z,99162.92
2019-04-06T02:20:06.112Z,99166.22
2019-04-06T02:22:35.294Z,99163.40
2019-04-06T02:25:06.401Z,99162.80
2019-04-06T02:27:35.676Z,99161.27
2019-04-06T02:30:11.494Z,99163.41
2019-04-06T02:32:58.491Z,99154.69
2019-04-06T02:35:35.323Z,99156.94
2019-04-06T02:38:12.136Z,99146.80
2019-04-06T02:40:42.914Z,99144.94
2019-04-06T02:43:13.633Z,99143.39
2019-04-06T02:45:42.864Z,99138.58
2019-04-06T02:48:12.056Z,99141.05
2019-04-06T02:50:41.241Z,99146.81
2019-04-06T02:53:10.327Z,99138.56
2019-04-06T02:55:39.499Z,99134.34
2019-04-06T02:58:08.841Z,99143.17
2019-04-06T03:00:38.054Z,99155.06
2019-04-06T03:03:07.336Z,99156.34
2019-04-06T03:05:36.466Z,99151.14
2019-04-06T03:08:05.700Z,99147.03
2019-04-06T03:10:34.990Z,99140.92
2019-04-06T03:13:04.157Z,99143.14
2019-04-06T03:15:33.388Z,99142.45
2019-04-06T03:18:02.517Z,99137.02
2019-04-06T03:20:31.855Z,99133.98
2019-04-06T03:23:01.240Z,99132.09
2019-04-06T03:25:30.369Z,99136.45
2019-04-06T03:27:59.556Z,99139.37
2019-04-06T03:30:29.023Z,99138.68
2019-04-06T03:32:59.213Z,99139.05
2019-04-06T03:35:28.587Z,99136.45
2019-04-06T03:37:57.979Z,99135.97
2019-04-06T03:40:27.180Z,99127.73
2019-04-06T03:42:56.363Z,99135.97
2019-04-06T03:45:25.595Z,99137.39
2019-04-06T03:47:54.765Z,99134.09
2019-04-06T03:50:24.061Z,99133.98
2019-04-06T03:52:53.315Z,99129.25
2019-04-06T03:55:22.603Z,99129.14
2019-04-06T03:57:51.844Z,99125.84
2019-04-06T04:00:21.075Z,99122.78
2019-04-06T04:02:50.274Z,99120.55
2019-04-06T04:05:21.805Z,99118.45
2019-04-06T04:07:50.977Z,99117.37
2019-04-06T04:10:38.189Z,99113.83
2019-04-06T04:13:07.364Z,99113.02
2019-04-06T04:15:36.658Z,99118.66
2019-04-06T04:18:06.185Z,99120.20
2019-04-06T04:20:35.459Z,99132.55
2019-04-06T04:23:04.659Z,99135.51
2019-04-06T04:25:33.870Z,99135.88
2019-04-06T04:28:02.975Z,99137.28
2019-04-06T04:30:34.030Z,99135.73
2019-04-06T04:33:03.100Z,99130.92
2019-04-06T04:35:32.435Z,99139.03
2019-04-06T04:38:01.783Z,99136.11
2019-04-06T04:40:31.133Z,99137.17
2019-04-06T04:43:00.348Z,99138.68
2019-04-06T04:45:29.545Z,99131.64
2019-04-06T04:47:58.733Z,99134.81
2019-04-06T04:50:28.062Z,99136.34
2019-04-06T04:52:57.485Z,99135.03
2019-04-06T04:55:26.623Z,99139.05
2019-04-06T04:57:55.802Z,99133.52
2019-04-06T05:00:24.952Z,99137.64
2019-04-06T05:02:54.085Z,99127.40
2019-04-06T05:05:23.389Z,99131.28
2019-04-06T05:07:52.526Z,99126.31
2019-04-06T05:10:21.964Z,99130.93
2019-04-06T05:12:51.167Z,99124.45
2019-04-06T05:15:32.197Z,99128.43
2019-04-06T05:18:01.367Z,99131.51
2019-04-06T05:20:30.580Z,99127.62
2019-04-06T05:23:04.573Z,99143.74
2019-04-06T05:25:33.775Z,99150.11
2019-04-06T05:28:03.050Z,99160.48
2019-04-06T05:30:32.109Z,99169.08
2019-04-06T05:33:01.509Z,99180.24
2019-04-06T05:35:30.783Z,99175.83
2019-04-06T05:38:00.065Z,99184.28
2019-04-06T05:40:29.479Z,99182.34
2019-04-06T05:43:00.857Z,99181.66
2019-04-06T05:45:30.011Z,99175.27
2019-04-06T05:47:59.114Z,99176.27
2019-04-06T05:50:28.577Z,99179.70
2019-04-06T05:52:57.862Z,99181.48
2019-04-06T05:55:27.245Z,99186.36
2019-04-06T05:58:03.698Z,99179.07
2019-04-06T06:00:27.149Z,99174.70
2019-04-06T06:02:56.317Z,99184.39
2019-04-06T06:05:25.529Z,99178.89
2019-04-06T06:07:54.739Z,99178.64
2019-04-06T06:10:23.969Z,99178.97
2019-04-06T06:12:53.063Z,99186.06
2019-04-06T06:15:22.190Z,99188.52
2019-04-06T06:17:51.424Z,99178.35
2019-04-06T06:20:20.649Z,99173.78
2019-04-06T06:22:49.738Z,99181.36
2019-04-06T06:25:18.980Z,99179.23
2019-04-06T06:27:48.248Z,99175.46
2019-04-06T06:30:18.032Z,99173.16
2019-04-06T06:32:47.179Z,99174.66
2019-04-06T06:35:16.577Z,99177.84
2019-04-06T06:37:45.909Z,99185.05
2019-04-06T06:40:15.379Z,99183.51
2019-04-06T06:42:44.595Z,99188.38
2019-04-06T06:45:14.319Z,99182.76
2019-04-06T06:47:43.538Z,99191.61
2019-04-06T06:50:13.186Z,99199.55
2019-04-06T06:52:42.388Z,99203.05
2019-04-06T06:55:11.657Z,99214.19
2019-04-06T06:57:40.871Z,99208.03
2019-04-06T07:00:10.441Z,99207.73
2019-04-06T07:02:39.717Z,99203.72
2019-04-06T07:05:09.143Z,99204.25
2019-04-06T07:07:38.382Z,99212.91
2019-04-06T07:10:08.244Z,99220.91
2019-04-06T07:12:37.529Z,99217.78
2019-04-06T07:15:07.730Z,99228.84
2019-04-06T07:17:36.863Z,99221.94
2019-04-06T07:20:08.276Z,99218.80
2019-04-06T07:22:39.187Z,99222.95
2019-04-06T07:25:08.692Z,99232.43
2019-04-06T07:27:38.033Z,99229.83
2019-04-06T07:30:08.197Z,99236.31
2019-04-06T07:32:37.407Z,99248.05
2019-04-06T07:35:07.709Z,99240.69
2019-04-06T07:37:39.736Z,99239.20
2019-04-06T07:40:12.208Z,99234.05
2019-04-06T07:42:43.694Z,99238.58
2019-04-06T07:45:13.444Z,99237.36
2019-04-06T07:47:44.631Z,99234.95
2019-04-06T07:50:15.893Z,99245.19
2019-04-06T07:52:45.361Z,99239.14
2019-04-06T07:55:17.930Z,99246.80
2019-04-06T07:57:47.566Z,99245.39
2019-04-06T08:00:19.307Z,99241.89
2019-04-06T08:02:48.466Z,99244.75
2019-04-06T08:05:19.393Z,99227.11
2019-04-06T08:07:48.692Z,99237.30
2019-04-06T08:10:18.524Z,99231.28
2019-04-06T08:12:47.888Z,99227.73
2019-04-06T08:15:17.196Z,99230.54
2019-04-06T08:17:47.973Z,99230.38
2019-04-06T08:20:20.324Z,99221.27
2019-04-06T08:22:49.652Z,99236.91
2019-04-06T08:25:18.939Z,99233.15
2019-04-06T08:27:48.140Z,99234.11
2019-04-06T08:30:17.507Z,99240.34
2019-04-06T08:32:47.101Z,99246.53
2019-04-06T08:35:25.422Z,99240.68
2019-04-06T08:37:47.339Z,99235.11
2019-04-06T08:40:16.792Z,99241.67
2019-04-06T08:42:46.377Z,99265.45
2019-04-06T08:45:15.764Z,99244.28
2019-04-06T08:47:45.003Z,99243.49
2019-04-06T08:50:15.419Z,99236.96
2019-04-06T08:52:44.711Z,99240.39
2019-04-06T08:55:14.234Z,99233.70
2019-04-06T08:57:43.659Z,99235.98
2019-04-06T09:00:13.383Z,99222.48
2019-04-06T09:02:42.822Z,99237.80
2019-04-06T09:05:13.122Z,99220.66
2019-04-06T09:07:43.055Z,99221.02
2019-04-06T09:10:13.009Z,99221.44
2019-04-06T09:12:42.399Z,99213.73
2019-04-06T09:15:15.899Z,99220.72
2019-04-06T09:17:50.887Z,99209.69
2019-04-06T09:20:23.319Z,99213.63
2019-04-06T09:22:53.041Z,99223.52
2019-04-06T09:25:22.543Z,99222.41
2019-04-06T09:27:53.073Z,99215.13
2019-04-06T09:30:22.522Z,99219.20
2019-04-06T09:32:52.083Z,99212.42
2019-04-06T09:35:21.353Z,99208.25
2019-04-06T09:37:50.880Z,99211.76
2019-04-06T09:40:20.364Z,99209.86
2019-04-06T09:42:50.333Z,99209.37
2019-04-06T09:45:37.395Z,99217.03
2019-04-06T09:48:08.782Z,99208.98
2019-04-06T09:50:42.447Z,99203.39
2019-04-06T09:53:21.231Z,99202.56
2019-04-06T09:55:52.152Z,99208.77
2019-04-06T09:58:22.869Z,99192.05
2019-04-06T10:00:56.704Z,99195.90
2019-04-06T10:03:44.181Z,99192.30
2019-04-06T10:06:15.400Z,99193.94
2019-04-06T10:08:49.193Z,99188.17
2019-04-06T10:11:25.976Z,99181.65
2019-04-06T10:14:12.972Z,99179.06
2019-04-06T10:17:03.337Z,99180.30
2019-04-06T10:19:42.939Z,99179.52
2019-04-06T10:22:29.718Z,99176.30
2019-04-06T10:25:11.005Z,99174.62
2019-04-06T10:27:53.760Z,99170.41
2019-04-06T10:30:30.592Z,99173.11
2019-04-06T10:33:13.878Z,99166.77
2019-04-06T10:35:59.967Z,99171.44
2019-04-06T10:38:53.404Z,99157.02
2019-04-06T10:41:40.440Z,99154.48
2019-04-06T10:44:20.544Z,99154.86
2019-04-06T10:46:51.693Z,99149.93
2019-04-06T10:49:22.870Z,99148.16
2019-04-06T10:52:09.982Z,99155.59
2019-04-06T10:54:43.453Z,99154.36
2019-04-06T10:57:14.395Z,99151.36
2019-04-06T11:00:03.556Z,99139.27
2019-04-06T11:02:34.367Z,99135.28
2019-04-06T11:05:06.320Z,99151.72
2019-04-06T11:07:43.006Z,99136.19
2019-04-06T11:10:30.663Z,99141.75
2019-04-06T11:13:04.049Z,99141.33
2019-04-06T11:15:45.272Z,99145.00
2019-04-06T11:18:31.337Z,99136.92
2019-04-06T11:21:02.223Z,99140.30
2019-04-06T11:23:35.571Z,99131.87
2019-04-06T11:26:12.888Z,99130.64
2019-04-06T11:28:54.219Z,99133.19
2019-04-06T11:31:41.867Z,99128.84
2019-04-06T11:34:15.476Z,99134.71
2019-04-06T11:37:02.286Z,99138.80
2019-04-06T11:39:36.015Z,99136.45
2019-04-06T11:42:18.639Z,99133.89
2019-04-06T11:44:58.660Z,99127.69
2019-04-06T11:47:45.742Z,99126.88
2019-04-06T11:50:19.911Z,99122.77
2019-04-06T11:52:53.666Z,99122.56
2019-04-06T11:55:32.231Z,99118.05
2019-04-06T11:58:19.440Z,99123.31
2019-04-06T12:01:08.431Z,99121.87
2019-04-06T12:03:39.301Z,99109.22
2019-04-06T12:06:25.487Z,99109.70
2019-04-06T12:08:56.366Z,99119.64
2019-04-06T12:11:43.277Z,99113.30
2019-04-06T12:14:19.830Z,99105.05
2019-04-06T12:16:56.539Z,99111.81
2019-04-06T12:19:27.487Z,99107.45
2019-04-06T12:22:14.850Z,99103.19
2019-04-06T12:24:48.443Z,99089.31
2019-04-06T12:27:35.529Z,99093.08
2019-04-06T12:30:11.343Z,99082.49
2019-04-06T12:32:57.220Z,99078.28
2019-04-06T12:35:44.045Z,99076.29
2019-04-06T12:38:20.664Z,99078.65
2019-04-06T12:40:57.830Z,99075.27
2019-04-06T12:43:45.375Z,99070.22
2019-04-06T12:46:19.104Z,99069.36
2019-04-06T12:48:55.694Z,99065.52
2019-04-06T12:51:32.339Z,99074.42
2019-04-06T12:54:03.431Z,99063.73
2019-04-06T12:56:50.404Z,99067.52
2019-04-06T12:59:27.852Z,99066.41
2019-04-06T13:02:08.165Z,99060.59
2019-04-06T13:04:55.692Z,99062.11
2019-04-06T13:07:45.535Z,99063.16
2019-04-06T13:10:16.729Z,99060.38
2019-04-06T13:12:47.509Z,99066.92
2019-04-06T13:15:24.790Z,99059.88
2019-04-06T13:17:58.536Z,99055.22
2019-04-06T13:20:32.415Z,99049.94
2019-04-06T13:23:15.428Z,99045.09
2019-04-06T13:25:46.351Z,99042.22
2019-04-06T13:28:19.966Z,99037.07
2019-04-06T13:31:01.418Z,99032.32
2019-04-06T13:33:26.258Z,99039.77
2019-04-06T13:36:06.169Z,99035.73
2019-04-06T13:38:52.166Z,99026.78
2019-04-06T13:41:31.951Z,99035.91
2019-04-06T13:44:04.968Z,99028.56
2019-04-06T13:46:51.813Z,99028.70
2019-04-06T13:49:38.743Z,99030.44
2019-04-06T13:52:25.901Z,99022.12
2019-04-06T13:55:02.326Z,99027.66
2019-04-06T13:57:35.703Z,99028.94
2019-04-06T14:00:11.228Z,99029.58
2019-04-06T14:02:53.864Z,99032.78
2019-04-06T14:05:39.370Z,99029.16
2019-04-06T14:08:19.254Z,99022.43
2019-04-06T14:11:04.953Z,99023.50
2019-04-06T14:13:38.736Z,99024.06
2019-04-06T14:16:27.926Z,99020.17
2019-04-06T14:19:07.761Z,99022.22
2019-04-06T14:21:41.469Z,99015.41
2019-04-06T14:24:26.306Z,99019.57
2019-04-06T14:27:09.253Z,99023.12
2019-04-06T14:29:40.038Z,99027.68
2019-04-06T14:32:28.983Z,99016.96
2019-04-06T14:35:00.473Z,99027.80
2019-04-06T14:37:34.760Z,99028.41
2019-04-06T14:40:24.338Z,99029.95
2019-04-06T14:43:06.629Z,99024.23
2019-04-06T14:45:40.508Z,99027.83
2019-04-06T14:48:27.812Z,99027.17
2019-04-06T14:51:04.780Z,99016.30
2019-04-06T14:53:42.753Z,99023.69
2019-04-06T14:56:26.588Z,99018.55
2019-04-06T14:59:01.540Z,99013.34
2019-04-06T15:01:57.949Z,99013.53
2019-04-06T15:04:21.678Z,99012.89
2019-04-06T15:07:12.173Z,99001.28
2019-04-06T15:09:41.111Z,99009.34
2019-04-06T15:12:14.851Z,99005.33
2019-04-06T15:15:02.047Z,99008.33
2019-04-06T15:17:39.098Z,99019.22
2019-04-06T15:20:25.421Z,99015.80
2019-04-06T15:23:08.257Z,99023.53
2019-04-06T15:25:42.304Z,99018.51
2019-04-06T15:28:28.822Z,99021.07
2019-04-06T15:31:08.352Z,99035.63
2019-04-06T15:33:39.249Z,99021.00
2019-04-06T15:36:10.614Z,99022.91
2019-04-06T15:38:57.702Z,99026.60
2019-04-06T15:41:34.318Z,99023.06
2019-04-06T15:44:08.006Z,99024.52
2019-04-06T15:46:53.979Z,99029.95
2019-04-06T15:49:27.580Z,99033.71
2019-04-06T15:52:10.748Z,99033.05
2019-04-06T15:54:36.787Z,99031.08
2019-04-06T15:57:07.642Z,99040.19
2019-04-06T15:59:47.836Z,99042.13
2019-04-06T16:02:21.364Z,99043.55
2019-04-06T16:04:52.412Z,99043.64
2019-04-06T16:07:41.730Z,99050.16
2019-04-06T16:10:29.025Z,99043.56
2019-04-06T16:13:02.539Z,99039.88
2019-04-06T16:15:36.395Z,99033.95
2019-04-06T16:18:07.253Z,99042.67
2019-04-06T16:20:48.316Z,99046.80
2019-04-06T16:23:34.385Z,99044.84
2019-04-06T16:26:08.448Z,99045.75
2019-04-06T16:28:55.557Z,99049.03
2019-04-06T16:31:29.711Z,99043.22
2019-04-06T16:34:15.774Z,99051.34
2019-04-06T16:36:53.488Z,99048.91
2019-04-06T16:39:33.636Z,99050.38
2019-04-06T16:42:14.634Z,99045.94
2019-04-06T16:44:55.616Z,99054.82
2019-04-06T16:47:47.334Z,99050.48
2019-04-06T16:50:25.285Z,99050.34
2019-04-06T16:53:06.660Z,99061.17
2019-04-06T16:55:44.635Z,99062.78
2019-04-06T16:58:27.372Z,99066.66
2019-04-06T17:01:02.667Z,99065.77
2019-04-06T17:03:37.971Z,99074.91
2019-04-06T17:06:28.608Z,99090.34
2019-04-06T17:09:12.970Z,99088.13
2019-04-06T17:11:47.979Z,99085.05
2019-04-06T17:14:41.237Z,99094.09
2019-04-06T17:17:17.011Z,99094.70
2019-04-06T17:20:04.678Z,99100.77
2019-04-06T17:22:55.468Z,99097.66
2019-04-06T17:25:41.471Z,99096.35
2019-04-06T17:28:16.036Z,99098.08
2019-04-06T17:31:06.116Z,99098.33
2019-04-06T17:33:43.660Z,99099.20
2019-04-06T17:36:15.822Z,99103.03
2019-04-06T17:38:52.630Z,99099.99
2019-04-06T17:41:34.144Z,99106.31
2019-04-06T17:44:12.683Z,99113.55
2019-04-06T17:46:49.631Z,99115.43
2019-04-06T17:49:38.646Z,99117.16
2019-04-06T17:52:18.219Z,99126.23
2019-04-06T17:54:51.991Z,99116.15
2019-04-06T17:57:41.264Z,99122.88
2019-04-06T18:00:16.563Z,99128.52
2019-04-06T18:02:56.333Z,99130.95
2019-04-06T18:05:44.965Z,99138.21
2019-04-06T18:08:18.984Z,99131.98
2019-04-06T18:10:50.663Z,99139.55
2019-04-06T18:13:33.404Z,99138.53
2019-04-06T18:16:02.618Z,99144.34
2019-04-06T18:18:31.831Z,99143.11
2019-04-06T18:21:01.098Z,99145.85
2019-04-06T18:23:30.307Z,99150.36
2019-04-06T18:26:01.634Z,99158.00
2019-04-06T18:28:30.897Z,99160.53
2019-04-06T18:31:04.663Z,99158.83
2019-04-06T18:33:34.142Z,99167.87
2019-04-06T18:36:03.410Z,99158.41
2019-04-06T18:38:34.324Z,99160.87
2019-04-06T18:41:03.867Z,99168.82
2019-04-06T18:43:33.068Z,99170.75
2019-04-06T18:46:02.443Z,99164.73
2019-04-06T18:48:31.680Z,99168.22
2019-04-06T18:51:01.114Z,99169.17
2019-04-06T18:53:33.365Z,99161.98
2019-04-06T18:56:02.924Z,99169.84
2019-04-06T18:58:32.080Z,99169.38
2019-04-06T19:01:01.478Z,99177.80
2019-04-06T19:03:31.260Z,99176.98
2019-04-06T19:06:00.711Z,99174.38
2019-04-06T19:08:29.846Z,99180.89
2019-04-06T19:10:59.036Z,99182.33
2019-04-06T19:13:28.618Z,99181.52
2019-04-06T19:15:58.410Z,99182.12
2019-04-06T19:18:27.734Z,99187.81
2019-04-06T19:20:56.936Z,99183.63
2019-04-06T19:23:26.188Z,99190.00
2019-04-06T19:25:55.412Z,99179.38
2019-04-06T19:28:24.861Z,99198.37
2019-04-06T19:30:54.074Z,99197.42
2019-04-06T19:33:25.582Z,99193.97
2019-04-06T19:35:54.073Z,99190.97
2019-04-06T19:38:23.397Z,99183.51
2019-04-06T19:40:54.186Z,99183.51
2019-04-06T19:43:25.235Z,99183.64
2019-04-06T19:45:54.410Z,99189.80
2019-04-06T19:48:23.562Z,99187.61
2019-04-06T19:50:53.246Z,99186.84
2019-04-06T19:53:22.539Z,99186.39
2019-04-06T19:55:53.101Z,99179.88
2019-04-06T19:58:22.711Z,99178.77
2019-04-06T20:00:51.983Z,99186.58
2019-04-06T20:03:21.423Z,99183.63
2019-04-06T20:05:50.633Z,99182.00
2019-04-06T20:08:19.778Z,99180.75
2019-04-06T20:10:49.556Z,99180.88
2019-04-06T20:13:18.867Z,99179.86
2019-04-06T20:15:49.091Z,99186.72
2019-04-06T20:18:18.472Z,99180.88
2019-04-06T20:20:47.935Z,99178.37
2019-04-06T20:23:17.031Z,99178.37
2019-04-06T20:25:46.383Z,99186.98
2019-04-06T20:28:15.972Z,99183.35
2019-04-06T20:30:45.270Z,99179.58
2019-04-06T20:33:14.504Z,99181.52
2019-04-06T20:35:44.025Z,99186.09
2019-04-06T20:38:13.373Z,99184.30
2019-04-06T20:40:42.813Z,99182.11
2019-04-06T20:43:12.065Z,99170.48
2019-04-06T20:45:41.346Z,99188.97
2019-04-06T20:48:10.542Z,99181.02
2019-04-06T20:50:39.893Z,99182.86
2019-04-06T20:53:09.129Z,99184.48
2019-04-06T20:55:38.764Z,99188.12
2019-04-06T20:58:08.342Z,99188.03
2019-04-06T21:00:37.966Z,99182.15
2019-04-06T21:03:07.440Z,99179.19
2019-04-06T21:05:37.134Z,99182.28
2019-04-06T21:08:06.399Z,99189.01
2019-04-06T21:10:36.214Z,99183.23
2019-04-06T21:13:06.613Z,99187.08
2019-04-06T21:15:36.133Z,99181.78
2019-04-06T21:18:05.429Z,99180.94
2019-04-06T21:20:34.760Z,99176.05
2019-04-06T21:23:10.685Z,99199.86
2019-04-06T21:25:40.233Z,99204.80
2019-04-06T21:28:10.029Z,99198.34
2019-04-06T21:30:39.327Z,99195.19
2019-04-06T21:33:08.841Z,99197.56
2019-04-06T21:35:38.193Z,99187.20
2019-04-06T21:38:07.792Z,99204.05
2019-04-06T21:40:37.307Z,99196.52
2019-04-06T21:43:06.892Z,99197.72
2019-04-06T21:45:36.658Z,99201.33
2019-04-06T21:48:06.059Z,99191.52
2019-04-06T21:50:35.322Z,99181.83
2019-04-06T21:53:04.558Z,99179.50
2019-04-06T21:55:33.916Z,99178.72
2019-04-06T21:58:03.387Z,99185.70
2019-04-06T22:00:53.532Z,99177.55
2019-04-06T22:03:23.404Z,99177.94
2019-04-06T22:05:53.256Z,99179.02
2019-04-06T22:08:23.179Z,99170.95
2019-04-06T22:10:54.181Z,99178.81
2019-04-06T22:13:23.614Z,99178.23
2019-04-06T22:15:52.826Z,99176.61
2019-04-06T22:18:22.164Z,99171.80
2019-04-06T22:20:51.583Z,99175.95
2019-04-06T22:23:20.861Z,99166.40
2019-04-06T22:25:51.797Z,99171.53
2019-04-06T22:28:24.512Z,99173.90
2019-04-06T22:30:55.500Z,99165.03
2019-04-06T22:33:25.112Z,99162.20
2019-04-06T22:35:58.560Z,99156.45
2019-04-06T22:38:28.999Z,99168.14
2019-04-06T22:40:58.162Z,99164.15
2019-04-06T22:43:27.545Z,99170.21
2019-04-06T22:45:56.871Z,99166.08
2019-04-06T22:48:26.598Z,99162.67
2019-04-06T22:50:57.838Z,99162.67
2019-04-06T22:53:28.241Z,99157.13
2019-04-06T22:55:58.588Z,99164.94
2019-04-06T22:58:28.877Z,99166.61
2019-04-06T23:01:05.314Z,99161.19
2019-04-06T23:03:41.244Z,99161.67
2019-04-06T23:06:12.957Z,99150.60
2019-04-06T23:08:44.745Z,99147.41
2019-04-06T23:11:14.139Z,99140.59
2019-04-06T23:13:43.775Z,99133.13
2019-04-06T23:16:13.767Z,99148.71
2019-04-06T23:18:43.185Z,99140.36
2019-04-06T23:21:12.447Z,99151.36
2019-04-06T23:23:41.887Z,99145.45
2019-04-06T23:26:11.219Z,99143.70
2019-04-06T23:28:40.391Z,99137.08
2019-04-06T23:31:09.838Z,99141.55
2019-04-06T23:33:39.625Z,99140.99
2019-04-06T23:36:09.202Z,99147.25
2019-04-06T23:38:38.635Z,99138.16
2019-04-06T23:41:07.838Z,99136.66
2019-04-06T23:43:37.029Z,99133.83
2019-04-06T23:46:06.404Z,99140.33
2019-04-06T23:48:36.373Z,99135.26
2019-04-06T23:51:06.297Z,99131.13
2019-04-06T23:53:36.035Z,99125.86
2019-04-06T23:56:07.109Z,99127.48
2019-04-06T23:58:36.379Z,99128.78
